sensor_id;sensor_type;location;lat;lon;timestamp;P1;durP1;ratioP1;P2;durP2;ratioP2
20855;SDS011;63058;49.424;8.420;2023-02-07T00:00:10;3.17;;;2.37;;
20855;SDS011;63058;49.424;8.420;2023-02-07T00:02:45;3.13;;;2.73;;
20855;SDS011;63058;49.424;8.420;2023-02-07T00:05:12;4.27;;;2.37;;
20855;SDS011;63058;49.424;8.420;2023-02-07T00:07:38;3.43;;;2.57;;
20855;SDS011;63058;49.424;8.420;2023-02-07T00:10:05;3.43;;;2.37;;
20855;SDS011;63058;49.424;8.420;2023-02-07T00:12:31;2.97;;;2.13;;
20855;SDS011;63058;49.424;8.420;2023-02-07T00:14:58;2.97;;;2.47;;
20855;SDS011;63058;49.424;8.420;2023-02-07T00:17:24;3.83;;;2.43;;
20855;SDS011;63058;49.424;8.420;2023-02-07T00:19:49;3.70;;;2.30;;
20855;SDS011;63058;49.424;8.420;2023-02-07T00:22:15;3.33;;;2.13;;
20855;SDS011;63058;49.424;8.420;2023-02-07T00:24:41;3.17;;;2.50;;
20855;SDS011;63058;49.424;8.420;2023-02-07T00:27:06;3.03;;;2.57;;
20855;SDS011;63058;49.424;8.420;2023-02-07T00:29:32;2.40;;;2.13;;
20855;SDS011;63058;49.424;8.420;2023-02-07T00:31:58;2.70;;;2.30;;
20855;SDS011;63058;49.424;8.420;2023-02-07T00:34:24;2.93;;;2.23;;
20855;SDS011;63058;49.424;8.420;2023-02-07T00:36:49;3.07;;;2.23;;
20855;SDS011;63058;49.424;8.420;2023-02-07T00:39:15;2.30;;;1.90;;
20855;SDS011;63058;49.424;8.420;2023-02-07T00:41:41;3.20;;;2.30;;
20855;SDS011;63058;49.424;8.420;2023-02-07T00:44:08;2.57;;;2.27;;
20855;SDS011;63058;49.424;8.420;2023-02-07T00:46:34;3.23;;;2.80;;
20855;SDS011;63058;49.424;8.420;2023-02-07T00:49:01;2.60;;;2.33;;
20855;SDS011;63058;49.424;8.420;2023-02-07T00:51:27;3.20;;;2.50;;
20855;SDS011;63058;49.424;8.420;2023-02-07T00:53:54;3.07;;;2.30;;
20855;SDS011;63058;49.424;8.420;2023-02-07T00:56:21;2.97;;;2.57;;
20855;SDS011;63058;49.424;8.420;2023-02-07T00:58:48;4.60;;;2.67;;
20855;SDS011;63058;49.424;8.420;2023-02-07T01:01:14;4.47;;;3.23;;
20855;SDS011;63058;49.424;8.420;2023-02-07T01:03:40;3.73;;;2.80;;
20855;SDS011;63058;49.424;8.420;2023-02-07T01:06:06;2.87;;;2.20;;
20855;SDS011;63058;49.424;8.420;2023-02-07T01:08:32;4.40;;;3.40;;
20855;SDS011;63058;49.424;8.420;2023-02-07T01:11:02;4.33;;;3.00;;
20855;SDS011;63058;49.424;8.420;2023-02-07T01:13:33;3.67;;;3.03;;
20855;SDS011;63058;49.424;8.420;2023-02-07T01:15:59;4.83;;;3.43;;
20855;SDS011;63058;49.424;8.420;2023-02-07T01:18:24;6.07;;;3.03;;
20855;SDS011;63058;49.424;8.420;2023-02-07T01:20:50;3.53;;;3.03;;
20855;SDS011;63058;49.424;8.420;2023-02-07T01:23:16;3.83;;;3.23;;
20855;SDS011;63058;49.424;8.420;2023-02-07T01:25:43;4.93;;;3.70;;
20855;SDS011;63058;49.424;8.420;2023-02-07T01:28:10;4.17;;;3.43;;
20855;SDS011;63058;49.424;8.420;2023-02-07T01:30:40;5.10;;;3.60;;
20855;SDS011;63058;49.424;8.420;2023-02-07T01:33:07;3.40;;;2.70;;
20855;SDS011;63058;49.424;8.420;2023-02-07T01:35:34;3.93;;;3.10;;
20855;SDS011;63058;49.424;8.420;2023-02-07T01:38:00;3.63;;;2.70;;
20855;SDS011;63058;49.424;8.420;2023-02-07T01:40:27;3.50;;;2.63;;
20855;SDS011;63058;49.424;8.420;2023-02-07T01:42:54;2.90;;;2.10;;
20855;SDS011;63058;49.424;8.420;2023-02-07T01:45:31;2.90;;;2.50;;
20855;SDS011;63058;49.424;8.420;2023-02-07T01:48:03;3.43;;;2.40;;
20855;SDS011;63058;49.424;8.420;2023-02-07T01:50:36;3.80;;;2.83;;
20855;SDS011;63058;49.424;8.420;2023-02-07T01:53:05;3.70;;;2.90;;
20855;SDS011;63058;49.424;8.420;2023-02-07T01:55:31;4.40;;;2.87;;
20855;SDS011;63058;49.424;8.420;2023-02-07T01:58:02;4.17;;;2.93;;
20855;SDS011;63058;49.424;8.420;2023-02-07T02:00:29;3.60;;;2.87;;
20855;SDS011;63058;49.424;8.420;2023-02-07T02:02:54;3.47;;;3.17;;
20855;SDS011;63058;49.424;8.420;2023-02-07T02:05:21;4.17;;;3.10;;
20855;SDS011;63058;49.424;8.420;2023-02-07T02:07:48;3.17;;;2.70;;
20855;SDS011;63058;49.424;8.420;2023-02-07T02:10:18;4.70;;;2.87;;
20855;SDS011;63058;49.424;8.420;2023-02-07T02:13:06;3.10;;;2.63;;
20855;SDS011;63058;49.424;8.420;2023-02-07T02:18:37;2.67;;;2.43;;
20855;SDS011;63058;49.424;8.420;2023-02-07T02:24:23;3.03;;;2.73;;
20855;SDS011;63058;49.424;8.420;2023-02-07T02:27:01;3.30;;;2.60;;
20855;SDS011;63058;49.424;8.420;2023-02-07T02:32:50;4.00;;;3.20;;
20855;SDS011;63058;49.424;8.420;2023-02-07T02:35:33;3.50;;;2.73;;
20855;SDS011;63058;49.424;8.420;2023-02-07T02:38:20;3.80;;;2.90;;
20855;SDS011;63058;49.424;8.420;2023-02-07T02:41:05;3.33;;;2.70;;
20855;SDS011;63058;49.424;8.420;2023-02-07T02:43:44;2.90;;;2.53;;
20855;SDS011;63058;49.424;8.420;2023-02-07T02:46:15;4.30;;;3.00;;
20855;SDS011;63058;49.424;8.420;2023-02-07T02:48:47;5.47;;;2.70;;
20855;SDS011;63058;49.424;8.420;2023-02-07T02:51:14;3.40;;;2.80;;
20855;SDS011;63058;49.424;8.420;2023-02-07T02:53:39;3.87;;;3.10;;
20855;SDS011;63058;49.424;8.420;2023-02-07T02:56:19;3.53;;;2.93;;
20855;SDS011;63058;49.424;8.420;2023-02-07T02:59:04;4.60;;;3.30;;
20855;SDS011;63058;49.424;8.420;2023-02-07T03:01:50;2.90;;;2.60;;
20855;SDS011;63058;49.424;8.420;2023-02-07T03:07:32;3.60;;;2.70;;
20855;SDS011;63058;49.424;8.420;2023-02-07T03:10:31;5.30;;;3.57;;
20855;SDS011;63058;49.424;8.420;2023-02-07T03:13:14;3.57;;;3.20;;
20855;SDS011;63058;49.424;8.420;2023-02-07T03:21:27;5.77;;;4.13;;
20855;SDS011;63058;49.424;8.420;2023-02-07T03:23:58;6.47;;;4.30;;
20855;SDS011;63058;49.424;8.420;2023-02-07T03:26:26;5.10;;;3.97;;
20855;SDS011;63058;49.424;8.420;2023-02-07T03:28:54;4.97;;;3.90;;
20855;SDS011;63058;49.424;8.420;2023-02-07T03:31:22;5.07;;;4.00;;
20855;SDS011;63058;49.424;8.420;2023-02-07T03:33:52;5.67;;;3.93;;
20855;SDS011;63058;49.424;8.420;2023-02-07T03:37:09;6.17;;;4.57;;
20855;SDS011;63058;49.424;8.420;2023-02-07T03:39:13;5.40;;;4.27;;
20855;SDS011;63058;49.424;8.420;2023-02-07T03:41:50;5.77;;;4.20;;
20855;SDS011;63058;49.424;8.420;2023-02-07T03:44:20;4.87;;;4.07;;
20855;SDS011;63058;49.424;8.420;2023-02-07T03:46:48;7.70;;;5.00;;
20855;SDS011;63058;49.424;8.420;2023-02-07T03:49:14;6.47;;;5.00;;
20855;SDS011;63058;49.424;8.420;2023-02-07T03:51:41;6.80;;;5.20;;
20855;SDS011;63058;49.424;8.420;2023-02-07T03:54:08;8.27;;;5.53;;
20855;SDS011;63058;49.424;8.420;2023-02-07T03:56:34;7.77;;;6.03;;
20855;SDS011;63058;49.424;8.420;2023-02-07T03:59:00;7.40;;;5.53;;
20855;SDS011;63058;49.424;8.420;2023-02-07T04:01:25;8.43;;;6.00;;
20855;SDS011;63058;49.424;8.420;2023-02-07T04:03:51;7.33;;;5.20;;
20855;SDS011;63058;49.424;8.420;2023-02-07T04:06:17;6.90;;;5.57;;
20855;SDS011;63058;49.424;8.420;2023-02-07T04:08:43;7.00;;;5.23;;
20855;SDS011;63058;49.424;8.420;2023-02-07T04:11:09;8.17;;;5.57;;
20855;SDS011;63058;49.424;8.420;2023-02-07T04:13:35;8.03;;;5.63;;
20855;SDS011;63058;49.424;8.420;2023-02-07T04:16:00;7.57;;;5.53;;
20855;SDS011;63058;49.424;8.420;2023-02-07T04:18:26;7.53;;;5.13;;
20855;SDS011;63058;49.424;8.420;2023-02-07T04:20:58;7.13;;;5.43;;
20855;SDS011;63058;49.424;8.420;2023-02-07T04:23:26;7.30;;;5.03;;
20855;SDS011;63058;49.424;8.420;2023-02-07T04:25:51;6.63;;;5.10;;
20855;SDS011;63058;49.424;8.420;2023-02-07T04:28:17;6.73;;;5.10;;
20855;SDS011;63058;49.424;8.420;2023-02-07T04:30:42;7.57;;;5.97;;
20855;SDS011;63058;49.424;8.420;2023-02-07T04:33:08;7.53;;;5.17;;
20855;SDS011;63058;49.424;8.420;2023-02-07T04:35:33;8.53;;;4.93;;
20855;SDS011;63058;49.424;8.420;2023-02-07T04:37:59;6.57;;;5.00;;
20855;SDS011;63058;49.424;8.420;2023-02-07T04:40:24;6.50;;;5.27;;
20855;SDS011;63058;49.424;8.420;2023-02-07T04:42:50;9.10;;;6.70;;
20855;SDS011;63058;49.424;8.420;2023-02-07T04:45:16;11.10;;;6.93;;
20855;SDS011;63058;49.424;8.420;2023-02-07T04:47:41;10.13;;;6.70;;
20855;SDS011;63058;49.424;8.420;2023-02-07T04:50:07;7.43;;;5.87;;
20855;SDS011;63058;49.424;8.420;2023-02-07T04:52:33;9.83;;;6.60;;
20855;SDS011;63058;49.424;8.420;2023-02-07T04:54:58;9.27;;;7.03;;
20855;SDS011;63058;49.424;8.420;2023-02-07T04:57:24;9.60;;;7.63;;
20855;SDS011;63058;49.424;8.420;2023-02-07T04:59:49;9.17;;;6.90;;
20855;SDS011;63058;49.424;8.420;2023-02-07T05:02:15;10.67;;;7.50;;
20855;SDS011;63058;49.424;8.420;2023-02-07T05:04:40;8.20;;;6.47;;
20855;SDS011;63058;49.424;8.420;2023-02-07T05:07:06;9.17;;;7.10;;
20855;SDS011;63058;49.424;8.420;2023-02-07T05:09:31;9.23;;;7.33;;
20855;SDS011;63058;49.424;8.420;2023-02-07T05:11:57;9.97;;;7.57;;
20855;SDS011;63058;49.424;8.420;2023-02-07T05:14:23;8.83;;;7.00;;
20855;SDS011;63058;49.424;8.420;2023-02-07T05:16:48;9.07;;;7.13;;
20855;SDS011;63058;49.424;8.420;2023-02-07T05:19:17;9.07;;;7.13;;
20855;SDS011;63058;49.424;8.420;2023-02-07T05:21:43;9.10;;;7.00;;
20855;SDS011;63058;49.424;8.420;2023-02-07T05:24:08;8.60;;;7.23;;
20855;SDS011;63058;49.424;8.420;2023-02-07T05:26:34;9.97;;;7.50;;
20855;SDS011;63058;49.424;8.420;2023-02-07T05:28:59;8.93;;;7.13;;
20855;SDS011;63058;49.424;8.420;2023-02-07T05:31:25;9.47;;;7.53;;
20855;SDS011;63058;49.424;8.420;2023-02-07T05:34:10;11.90;;;7.83;;
20855;SDS011;63058;49.424;8.420;2023-02-07T05:36:36;10.17;;;7.77;;
20855;SDS011;63058;49.424;8.420;2023-02-07T05:39:02;11.23;;;8.37;;
20855;SDS011;63058;49.424;8.420;2023-02-07T05:41:27;10.50;;;8.23;;
20855;SDS011;63058;49.424;8.420;2023-02-07T05:43:53;10.20;;;7.80;;
20855;SDS011;63058;49.424;8.420;2023-02-07T05:46:18;11.10;;;8.17;;
20855;SDS011;63058;49.424;8.420;2023-02-07T05:48:44;10.57;;;8.27;;
20855;SDS011;63058;49.424;8.420;2023-02-07T05:51:09;12.00;;;8.47;;
20855;SDS011;63058;49.424;8.420;2023-02-07T05:53:35;8.33;;;7.17;;
20855;SDS011;63058;49.424;8.420;2023-02-07T05:56:00;8.90;;;7.07;;
20855;SDS011;63058;49.424;8.420;2023-02-07T05:58:26;9.30;;;6.80;;
20855;SDS011;63058;49.424;8.420;2023-02-07T06:00:53;11.13;;;8.03;;
20855;SDS011;63058;49.424;8.420;2023-02-07T06:03:19;9.80;;;7.37;;
20855;SDS011;63058;49.424;8.420;2023-02-07T06:05:44;9.10;;;7.37;;
20855;SDS011;63058;49.424;8.420;2023-02-07T06:08:10;9.30;;;7.60;;
20855;SDS011;63058;49.424;8.420;2023-02-07T06:10:36;11.00;;;7.83;;
20855;SDS011;63058;49.424;8.420;2023-02-07T06:13:01;9.53;;;7.50;;
20855;SDS011;63058;49.424;8.420;2023-02-07T06:15:27;10.23;;;7.70;;
20855;SDS011;63058;49.424;8.420;2023-02-07T06:17:52;10.17;;;7.47;;
20855;SDS011;63058;49.424;8.420;2023-02-07T06:20:18;9.83;;;7.97;;
20855;SDS011;63058;49.424;8.420;2023-02-07T06:22:44;11.73;;;8.53;;
20855;SDS011;63058;49.424;8.420;2023-02-07T06:25:09;12.40;;;8.77;;
20855;SDS011;63058;49.424;8.420;2023-02-07T06:27:36;11.20;;;8.17;;
20855;SDS011;63058;49.424;8.420;2023-02-07T06:30:03;12.87;;;9.43;;
20855;SDS011;63058;49.424;8.420;2023-02-07T06:32:29;10.27;;;8.43;;
20855;SDS011;63058;49.424;8.420;2023-02-07T06:34:55;10.47;;;7.90;;
20855;SDS011;63058;49.424;8.420;2023-02-07T06:37:20;11.50;;;8.20;;
20855;SDS011;63058;49.424;8.420;2023-02-07T06:39:46;12.00;;;9.13;;
20855;SDS011;63058;49.424;8.420;2023-02-07T06:42:11;11.87;;;9.10;;
20855;SDS011;63058;49.424;8.420;2023-02-07T06:44:37;10.23;;;8.53;;
20855;SDS011;63058;49.424;8.420;2023-02-07T06:47:02;11.33;;;8.27;;
20855;SDS011;63058;49.424;8.420;2023-02-07T06:49:28;10.47;;;8.70;;
20855;SDS011;63058;49.424;8.420;2023-02-07T06:51:53;10.70;;;8.17;;
20855;SDS011;63058;49.424;8.420;2023-02-07T06:54:19;11.70;;;7.90;;
20855;SDS011;63058;49.424;8.420;2023-02-07T06:56:45;11.47;;;7.67;;
20855;SDS011;63058;49.424;8.420;2023-02-07T06:59:10;9.90;;;7.27;;
20855;SDS011;63058;49.424;8.420;2023-02-07T07:01:36;12.47;;;8.70;;
20855;SDS011;63058;49.424;8.420;2023-02-07T07:04:02;9.60;;;7.50;;
20855;SDS011;63058;49.424;8.420;2023-02-07T07:06:27;10.83;;;8.10;;
20855;SDS011;63058;49.424;8.420;2023-02-07T07:08:53;9.77;;;7.73;;
20855;SDS011;63058;49.424;8.420;2023-02-07T07:11:18;10.90;;;8.27;;
20855;SDS011;63058;49.424;8.420;2023-02-07T07:13:44;8.13;;;7.03;;
20855;SDS011;63058;49.424;8.420;2023-02-07T07:16:10;9.57;;;7.57;;
20855;SDS011;63058;49.424;8.420;2023-02-07T07:18:36;9.20;;;7.70;;
20855;SDS011;63058;49.424;8.420;2023-02-07T07:21:03;9.67;;;7.60;;
20855;SDS011;63058;49.424;8.420;2023-02-07T07:23:29;10.43;;;8.00;;
20855;SDS011;63058;49.424;8.420;2023-02-07T07:25:54;9.87;;;8.17;;
20855;SDS011;63058;49.424;8.420;2023-02-07T07:28:20;10.23;;;8.13;;
20855;SDS011;63058;49.424;8.420;2023-02-07T07:30:45;10.03;;;8.10;;
20855;SDS011;63058;49.424;8.420;2023-02-07T07:33:11;9.40;;;7.67;;
20855;SDS011;63058;49.424;8.420;2023-02-07T07:35:36;9.70;;;7.60;;
20855;SDS011;63058;49.424;8.420;2023-02-07T07:38:02;11.17;;;8.30;;
20855;SDS011;63058;49.424;8.420;2023-02-07T07:40:28;11.43;;;8.53;;
20855;SDS011;63058;49.424;8.420;2023-02-07T07:42:53;10.07;;;7.47;;
20855;SDS011;63058;49.424;8.420;2023-02-07T07:45:19;10.77;;;8.20;;
20855;SDS011;63058;49.424;8.420;2023-02-07T07:47:44;9.73;;;7.80;;
20855;SDS011;63058;49.424;8.420;2023-02-07T07:50:10;11.83;;;8.00;;
20855;SDS011;63058;49.424;8.420;2023-02-07T07:52:36;11.97;;;8.43;;
20855;SDS011;63058;49.424;8.420;2023-02-07T07:55:01;9.63;;;7.70;;
20855;SDS011;63058;49.424;8.420;2023-02-07T07:57:27;9.50;;;7.93;;
20855;SDS011;63058;49.424;8.420;2023-02-07T07:59:53;10.00;;;8.20;;
20855;SDS011;63058;49.424;8.420;2023-02-07T08:02:19;10.73;;;8.27;;
20855;SDS011;63058;49.424;8.420;2023-02-07T08:04:45;12.53;;;8.47;;
20855;SDS011;63058;49.424;8.420;2023-02-07T08:07:10;11.03;;;8.27;;
20855;SDS011;63058;49.424;8.420;2023-02-07T08:09:36;9.67;;;7.70;;
20855;SDS011;63058;49.424;8.420;2023-02-07T08:12:01;10.00;;;7.80;;
20855;SDS011;63058;49.424;8.420;2023-02-07T08:14:27;10.77;;;8.47;;
20855;SDS011;63058;49.424;8.420;2023-02-07T08:16:53;11.50;;;7.97;;
20855;SDS011;63058;49.424;8.420;2023-02-07T08:19:18;11.07;;;8.40;;
20855;SDS011;63058;49.424;8.420;2023-02-07T08:21:44;9.87;;;7.53;;
20855;SDS011;63058;49.424;8.420;2023-02-07T08:24:09;10.47;;;8.03;;
20855;SDS011;63058;49.424;8.420;2023-02-07T08:26:35;10.90;;;7.90;;
20855;SDS011;63058;49.424;8.420;2023-02-07T08:29:00;10.63;;;7.77;;
20855;SDS011;63058;49.424;8.420;2023-02-07T08:31:26;9.50;;;7.47;;
20855;SDS011;63058;49.424;8.420;2023-02-07T08:33:52;10.03;;;8.13;;
20855;SDS011;63058;49.424;8.420;2023-02-07T08:36:17;11.00;;;8.40;;
20855;SDS011;63058;49.424;8.420;2023-02-07T08:38:43;10.57;;;8.33;;
20855;SDS011;63058;49.424;8.420;2023-02-07T08:41:09;9.53;;;7.30;;
20855;SDS011;63058;49.424;8.420;2023-02-07T08:43:34;8.97;;;6.97;;
20855;SDS011;63058;49.424;8.420;2023-02-07T08:46:02;11.30;;;7.60;;
20855;SDS011;63058;49.424;8.420;2023-02-07T08:48:27;11.37;;;7.67;;
20855;SDS011;63058;49.424;8.420;2023-02-07T08:50:53;10.03;;;7.63;;
20855;SDS011;63058;49.424;8.420;2023-02-07T08:53:19;10.90;;;8.23;;
20855;SDS011;63058;49.424;8.420;2023-02-07T08:55:44;9.77;;;7.17;;
20855;SDS011;63058;49.424;8.420;2023-02-07T08:58:10;9.80;;;7.40;;
20855;SDS011;63058;49.424;8.420;2023-02-07T09:00:36;9.10;;;6.97;;
20855;SDS011;63058;49.424;8.420;2023-02-07T09:03:02;9.37;;;7.47;;
20855;SDS011;63058;49.424;8.420;2023-02-07T09:05:28;9.30;;;7.57;;
20855;SDS011;63058;49.424;8.420;2023-02-07T09:07:57;9.33;;;7.53;;
20855;SDS011;63058;49.424;8.420;2023-02-07T09:10:23;9.30;;;7.73;;
20855;SDS011;63058;49.424;8.420;2023-02-07T09:12:48;8.70;;;6.83;;
20855;SDS011;63058;49.424;8.420;2023-02-07T09:15:14;9.37;;;7.20;;
20855;SDS011;63058;49.424;8.420;2023-02-07T09:17:39;11.17;;;7.93;;
20855;SDS011;63058;49.424;8.420;2023-02-07T09:20:05;9.97;;;7.37;;
20855;SDS011;63058;49.424;8.420;2023-02-07T09:22:31;8.90;;;7.27;;
20855;SDS011;63058;49.424;8.420;2023-02-07T09:25:17;9.40;;;6.63;;
20855;SDS011;63058;49.424;8.420;2023-02-07T09:27:43;7.90;;;6.30;;
20855;SDS011;63058;49.424;8.420;2023-02-07T09:30:08;9.43;;;7.47;;
20855;SDS011;63058;49.424;8.420;2023-02-07T09:32:34;9.93;;;7.70;;
20855;SDS011;63058;49.424;8.420;2023-02-07T09:35:00;10.33;;;7.73;;
20855;SDS011;63058;49.424;8.420;2023-02-07T09:37:25;10.23;;;7.33;;
20855;SDS011;63058;49.424;8.420;2023-02-07T09:39:51;10.33;;;7.43;;
20855;SDS011;63058;49.424;8.420;2023-02-07T09:45:18;8.70;;;6.33;;
20855;SDS011;63058;49.424;8.420;2023-02-07T09:47:48;10.40;;;8.23;;
20855;SDS011;63058;49.424;8.420;2023-02-07T09:50:17;8.67;;;6.90;;
20855;SDS011;63058;49.424;8.420;2023-02-07T09:52:48;10.90;;;7.27;;
20855;SDS011;63058;49.424;8.420;2023-02-07T09:55:17;12.43;;;8.77;;
20855;SDS011;63058;49.424;8.420;2023-02-07T09:57:58;12.10;;;8.90;;
20855;SDS011;63058;49.424;8.420;2023-02-07T10:00:30;12.17;;;8.63;;
20855;SDS011;63058;49.424;8.420;2023-02-07T10:05:36;11.07;;;8.60;;
20855;SDS011;63058;49.424;8.420;2023-02-07T10:08:16;12.57;;;8.57;;
20855;SDS011;63058;49.424;8.420;2023-02-07T10:21:08;8.53;;;6.30;;
20855;SDS011;63058;49.424;8.420;2023-02-07T10:27:12;7.43;;;5.83;;
20855;SDS011;63058;49.424;8.420;2023-02-07T10:32:32;6.73;;;5.27;;
20855;SDS011;63058;49.424;8.420;2023-02-07T10:35:01;8.67;;;5.63;;
20855;SDS011;63058;49.424;8.420;2023-02-07T10:37:53;7.77;;;5.50;;
20855;SDS011;63058;49.424;8.420;2023-02-07T10:40:40;7.00;;;5.80;;
20855;SDS011;63058;49.424;8.420;2023-02-07T10:46:04;8.33;;;6.13;;
20855;SDS011;63058;49.424;8.420;2023-02-07T10:48:33;7.30;;;5.40;;
20855;SDS011;63058;49.424;8.420;2023-02-07T10:50:59;6.93;;;5.07;;
20855;SDS011;63058;49.424;8.420;2023-02-07T10:53:59;5.28;;;4.00;;
20855;SDS011;63058;49.424;8.420;2023-02-07T10:56:28;6.10;;;5.07;;
20855;SDS011;63058;49.424;8.420;2023-02-07T10:58:57;6.20;;;4.60;;
20855;SDS011;63058;49.424;8.420;2023-02-07T11:01:24;6.15;;;4.70;;
20855;SDS011;63058;49.424;8.420;2023-02-07T11:03:52;6.38;;;4.82;;
20855;SDS011;63058;49.424;8.420;2023-02-07T11:06:32;7.03;;;5.30;;
20855;SDS011;63058;49.424;8.420;2023-02-07T11:09:11;7.47;;;5.30;;
20855;SDS011;63058;49.424;8.420;2023-02-07T11:11:48;5.88;;;5.10;;
20855;SDS011;63058;49.424;8.420;2023-02-07T11:14:16;6.60;;;5.57;;
20855;SDS011;63058;49.424;8.420;2023-02-07T11:16:45;7.28;;;4.90;;
20855;SDS011;63058;49.424;8.420;2023-02-07T11:19:18;5.85;;;4.68;;
20855;SDS011;63058;49.424;8.420;2023-02-07T11:21:48;5.78;;;4.47;;
20855;SDS011;63058;49.424;8.420;2023-02-07T11:24:16;5.55;;;4.38;;
20855;SDS011;63058;49.424;8.420;2023-02-07T11:27:00;5.60;;;3.95;;
20855;SDS011;63058;49.424;8.420;2023-02-07T11:29:28;5.43;;;4.25;;
20855;SDS011;63058;49.424;8.420;2023-02-07T11:31:55;6.03;;;4.63;;
20855;SDS011;63058;49.424;8.420;2023-02-07T11:34:43;7.55;;;5.20;;
20855;SDS011;63058;49.424;8.420;2023-02-07T11:39:44;5.63;;;4.07;;
20855;SDS011;63058;49.424;8.420;2023-02-07T11:42:12;6.53;;;4.25;;
20855;SDS011;63058;49.424;8.420;2023-02-07T11:44:49;5.22;;;4.05;;
20855;SDS011;63058;49.424;8.420;2023-02-07T11:47:16;5.72;;;4.60;;
20855;SDS011;63058;49.424;8.420;2023-02-07T11:49:48;4.88;;;4.00;;
20855;SDS011;63058;49.424;8.420;2023-02-07T11:52:16;5.10;;;3.72;;
20855;SDS011;63058;49.424;8.420;2023-02-07T11:54:47;4.80;;;3.83;;
20855;SDS011;63058;49.424;8.420;2023-02-07T11:57:16;5.15;;;3.90;;
20855;SDS011;63058;49.424;8.420;2023-02-07T11:59:48;4.53;;;3.85;;
20855;SDS011;63058;49.424;8.420;2023-02-07T12:02:23;4.82;;;3.80;;
20855;SDS011;63058;49.424;8.420;2023-02-07T12:04:51;5.97;;;4.45;;
20855;SDS011;63058;49.424;8.420;2023-02-07T12:07:25;6.85;;;4.07;;
20855;SDS011;63058;49.424;8.420;2023-02-07T12:10:04;5.05;;;3.90;;
20855;SDS011;63058;49.424;8.420;2023-02-07T12:12:39;5.55;;;3.63;;
20855;SDS011;63058;49.424;8.420;2023-02-07T12:15:12;5.45;;;3.80;;
20855;SDS011;63058;49.424;8.420;2023-02-07T12:20:26;6.57;;;3.97;;
20855;SDS011;63058;49.424;8.420;2023-02-07T12:23:06;6.03;;;4.45;;
20855;SDS011;63058;49.424;8.420;2023-02-07T12:25:35;7.85;;;4.95;;
20855;SDS011;63058;49.424;8.420;2023-02-07T12:28:18;5.60;;;4.78;;
20855;SDS011;63058;49.424;8.420;2023-02-07T12:31:00;5.30;;;3.80;;
20855;SDS011;63058;49.424;8.420;2023-02-07T12:33:41;5.55;;;4.20;;
20855;SDS011;63058;49.424;8.420;2023-02-07T12:36:19;4.63;;;3.63;;
20855;SDS011;63058;49.424;8.420;2023-02-07T12:44:36;4.70;;;3.60;;
20855;SDS011;63058;49.424;8.420;2023-02-07T12:47:14;4.10;;;3.33;;
20855;SDS011;63058;49.424;8.420;2023-02-07T12:49:58;4.47;;;3.25;;
20855;SDS011;63058;49.424;8.420;2023-02-07T12:55:47;4.30;;;3.47;;
20855;SDS011;63058;49.424;8.420;2023-02-07T13:01:34;5.47;;;4.50;;
20855;SDS011;63058;49.424;8.420;2023-02-07T13:04:21;4.70;;;3.72;;
20855;SDS011;63058;49.424;8.420;2023-02-07T13:07:12;3.45;;;2.88;;
20855;SDS011;63058;49.424;8.420;2023-02-07T13:10:02;3.90;;;3.28;;
20855;SDS011;63058;49.424;8.420;2023-02-07T13:15:25;7.05;;;5.18;;
20855;SDS011;63058;49.424;8.420;2023-02-07T13:18:21;7.75;;;4.03;;
20855;SDS011;63058;49.424;8.420;2023-02-07T13:23:48;5.07;;;3.83;;
20855;SDS011;63058;49.424;8.420;2023-02-07T13:26:19;4.25;;;3.35;;
20855;SDS011;63058;49.424;8.420;2023-02-07T13:28:49;5.50;;;4.15;;
20855;SDS011;63058;49.424;8.420;2023-02-07T13:31:20;4.10;;;3.70;;
20855;SDS011;63058;49.424;8.420;2023-02-07T13:34:12;5.00;;;3.88;;
20855;SDS011;63058;49.424;8.420;2023-02-07T13:36:41;5.22;;;4.18;;
20855;SDS011;63058;49.424;8.420;2023-02-07T13:44:30;6.05;;;5.10;;
20855;SDS011;63058;49.424;8.420;2023-02-07T13:52:33;5.82;;;4.60;;
20855;SDS011;63058;49.424;8.420;2023-02-07T13:55:21;6.57;;;4.75;;
20855;SDS011;63058;49.424;8.420;2023-02-07T13:57:55;6.50;;;4.72;;
20855;SDS011;63058;49.424;8.420;2023-02-07T14:03:18;5.70;;;4.13;;
20855;SDS011;63058;49.424;8.420;2023-02-07T14:05:45;5.82;;;4.88;;
20855;SDS011;63058;49.424;8.420;2023-02-07T14:10:50;11.43;;;5.72;;
20855;SDS011;63058;49.424;8.420;2023-02-07T14:15:53;6.35;;;4.65;;
20855;SDS011;63058;49.424;8.420;2023-02-07T14:18:31;5.68;;;4.80;;
20855;SDS011;63058;49.424;8.420;2023-02-07T14:24:13;8.80;;;5.00;;
20855;SDS011;63058;49.424;8.420;2023-02-07T14:26:41;12.50;;;5.32;;
20855;SDS011;63058;49.424;8.420;2023-02-07T14:31:47;8.15;;;6.03;;
20855;SDS011;63058;49.424;8.420;2023-02-07T14:34:19;7.10;;;5.40;;
20855;SDS011;63058;49.424;8.420;2023-02-07T14:36:46;6.80;;;5.30;;
20855;SDS011;63058;49.424;8.420;2023-02-07T14:41:44;6.78;;;5.07;;
20855;SDS011;63058;49.424;8.420;2023-02-07T14:44:22;6.50;;;5.03;;
20855;SDS011;63058;49.424;8.420;2023-02-07T14:46:56;7.10;;;4.82;;
20855;SDS011;63058;49.424;8.420;2023-02-07T14:52:15;6.63;;;5.25;;
20855;SDS011;63058;49.424;8.420;2023-02-07T14:55:03;7.47;;;4.85;;
20855;SDS011;63058;49.424;8.420;2023-02-07T15:02:39;9.95;;;6.07;;
20855;SDS011;63058;49.424;8.420;2023-02-07T15:05:19;10.00;;;5.80;;
20855;SDS011;63058;49.424;8.420;2023-02-07T15:07:52;7.22;;;5.38;;
20855;SDS011;63058;49.424;8.420;2023-02-07T15:12:46;7.50;;;5.28;;
20855;SDS011;63058;49.424;8.420;2023-02-07T15:15:16;6.90;;;5.20;;
20855;SDS011;63058;49.424;8.420;2023-02-07T15:17:44;7.72;;;5.15;;
20855;SDS011;63058;49.424;8.420;2023-02-07T15:20:13;7.63;;;5.63;;
20855;SDS011;63058;49.424;8.420;2023-02-07T15:22:40;10.65;;;6.70;;
20855;SDS011;63058;49.424;8.420;2023-02-07T15:25:10;8.48;;;6.38;;
20855;SDS011;63058;49.424;8.420;2023-02-07T15:27:37;9.55;;;7.00;;
20855;SDS011;63058;49.424;8.420;2023-02-07T15:30:04;10.80;;;7.00;;
20855;SDS011;63058;49.424;8.420;2023-02-07T15:32:41;9.55;;;7.13;;
20855;SDS011;63058;49.424;8.420;2023-02-07T15:35:17;10.57;;;7.18;;
20855;SDS011;63058;49.424;8.420;2023-02-07T15:37:43;8.93;;;6.95;;
20855;SDS011;63058;49.424;8.420;2023-02-07T15:40:15;8.38;;;6.53;;
20855;SDS011;63058;49.424;8.420;2023-02-07T15:42:54;10.15;;;6.65;;
20855;SDS011;63058;49.424;8.420;2023-02-07T15:48:01;12.10;;;7.93;;
20855;SDS011;63058;49.424;8.420;2023-02-07T15:50:31;8.50;;;6.85;;
20855;SDS011;63058;49.424;8.420;2023-02-07T15:52:58;9.13;;;6.85;;
20855;SDS011;63058;49.424;8.420;2023-02-07T15:55:29;10.73;;;7.65;;
20855;SDS011;63058;49.424;8.420;2023-02-07T15:58:16;9.93;;;6.97;;
20855;SDS011;63058;49.424;8.420;2023-02-07T16:00:57;9.07;;;6.63;;
20855;SDS011;63058;49.424;8.420;2023-02-07T16:03:28;9.13;;;7.22;;
20855;SDS011;63058;49.424;8.420;2023-02-07T16:08:47;8.90;;;6.65;;
20855;SDS011;63058;49.424;8.420;2023-02-07T16:16:27;9.73;;;7.18;;
20855;SDS011;63058;49.424;8.420;2023-02-07T16:19:07;10.37;;;7.57;;
20855;SDS011;63058;49.424;8.420;2023-02-07T16:22:03;10.33;;;7.57;;
20855;SDS011;63058;49.424;8.420;2023-02-07T16:24:36;10.57;;;7.10;;
20855;SDS011;63058;49.424;8.420;2023-02-07T16:27:04;8.97;;;6.50;;
20855;SDS011;63058;49.424;8.420;2023-02-07T16:29:31;8.57;;;6.30;;
20855;SDS011;63058;49.424;8.420;2023-02-07T16:31:58;9.30;;;6.77;;
20855;SDS011;63058;49.424;8.420;2023-02-07T16:34:24;7.90;;;5.90;;
20855;SDS011;63058;49.424;8.420;2023-02-07T16:36:50;9.50;;;6.83;;
20855;SDS011;63058;49.424;8.420;2023-02-07T16:39:18;9.57;;;6.50;;
20855;SDS011;63058;49.424;8.420;2023-02-07T16:41:45;10.67;;;7.60;;
20855;SDS011;63058;49.424;8.420;2023-02-07T16:44:20;10.97;;;7.50;;
20855;SDS011;63058;49.424;8.420;2023-02-07T16:46:48;12.03;;;8.30;;
20855;SDS011;63058;49.424;8.420;2023-02-07T16:49:14;11.63;;;7.70;;
20855;SDS011;63058;49.424;8.420;2023-02-07T16:51:40;10.80;;;7.43;;
20855;SDS011;63058;49.424;8.420;2023-02-07T16:54:07;10.73;;;7.77;;